sensor_id;sensor_type;location;lat;lon;timestamp;pressure;altitude;pressure_sealevel;temperature;humidity
37892;BME280;45797;47.466;9.486;2023-04-03T00:01:59;96191.44;;;8.88;65.83
37892;BME280;45797;47.466;9.486;2023-04-03T00:07:09;96187.88;;;8.90;65.85
37892;BME280;45797;47.466;9.486;2023-04-03T00:12:11;96191.53;;;8.87;65.68
37892;BME280;45797;47.466;9.486;2023-04-03T00:17:12;96187.22;;;8.72;65.89
37892;BME280;45797;47.466;9.486;2023-04-03T00:22:15;96192.38;;;8.57;66.44
37892;BME280;45797;47.466;9.486;2023-04-03T00:27:15;96197.28;;;8.48;66.42
37892;BME280;45797;47.466;9.486;2023-04-03T00:32:16;96210.44;;;8.46;66.70
37892;BME280;45797;47.466;9.486;2023-04-03T00:37:17;96205.56;;;8.40;66.44
37892;BME280;45797;47.466;9.486;2023-04-03T00:42:18;96207.81;;;8.30;66.22
37892;BME280;45797;47.466;9.486;2023-04-03T00:47:44;96205.47;;;8.26;65.93
37892;BME280;45797;47.466;9.486;2023-04-03T00:52:57;96213.81;;;8.17;65.94
37892;BME280;45797;47.466;9.486;2023-04-03T00:58:11;96218.84;;;8.20;66.29
37892;BME280;45797;47.466;9.486;2023-04-03T01:03:17;96218.53;;;8.26;66.25
37892;BME280;45797;47.466;9.486;2023-04-03T01:08:24;96211.78;;;8.22;66.01
37892;BME280;45797;47.466;9.486;2023-04-03T01:13:34;96215.72;;;8.13;66.11
37892;BME280;45797;47.466;9.486;2023-04-03T01:18:51;96224.00;;;8.06;65.96
37892;BME280;45797;47.466;9.486;2023-04-03T01:29:07;96230.28;;;7.86;66.39
37892;BME280;45797;47.466;9.486;2023-04-03T01:34:09;96243.25;;;7.71;66.44
37892;BME280;45797;47.466;9.486;2023-04-03T01:39:10;96245.84;;;7.71;66.32
37892;BME280;45797;47.466;9.486;2023-04-03T01:44:11;96255.16;;;7.76;66.10
37892;BME280;45797;47.466;9.486;2023-04-03T01:49:17;96251.28;;;7.67;65.90
37892;BME280;45797;47.466;9.486;2023-04-03T01:54:20;96250.88;;;7.59;65.99
37892;BME280;45797;47.466;9.486;2023-04-03T01:59:21;96249.91;;;7.44;66.00
37892;BME280;45797;47.466;9.486;2023-04-03T02:04:22;96255.84;;;7.30;66.18
37892;BME280;45797;47.466;9.486;2023-04-03T02:09:26;96253.84;;;7.18;66.48
37892;BME280;45797;47.466;9.486;2023-04-03T02:14:28;96269.94;;;7.09;66.04
37892;BME280;45797;47.466;9.486;2023-04-03T02:19:34;96267.81;;;7.00;66.14
37892;BME280;45797;47.466;9.486;2023-04-03T02:24:41;96272.63;;;6.90;65.88
37892;BME280;45797;47.466;9.486;2023-04-03T02:29:43;96275.09;;;6.76;66.47
37892;BME280;45797;47.466;9.486;2023-04-03T02:34:44;96274.91;;;6.62;66.05
37892;BME280;45797;47.466;9.486;2023-04-03T02:39:46;96279.78;;;6.50;66.20
37892;BME280;45797;47.466;9.486;2023-04-03T02:44:47;96284.59;;;6.41;66.36
37892;BME280;45797;47.466;9.486;2023-04-03T02:49:48;96281.44;;;6.34;66.06
37892;BME280;45797;47.466;9.486;2023-04-03T02:54:53;96288.25;;;6.37;65.98
37892;BME280;45797;47.466;9.486;2023-04-03T02:59:54;96278.78;;;6.36;65.87
37892;BME280;45797;47.466;9.486;2023-04-03T03:04:57;96288.19;;;6.38;66.23
37892;BME280;45797;47.466;9.486;2023-04-03T03:10:03;96290.56;;;6.43;65.94
37892;BME280;45797;47.466;9.486;2023-04-03T03:15:04;96290.84;;;6.55;65.47
37892;BME280;45797;47.466;9.486;2023-04-03T03:20:05;96288.63;;;6.65;64.93
37892;BME280;45797;47.466;9.486;2023-04-03T03:25:15;96292.59;;;6.72;64.96
37892;BME280;45797;47.466;9.486;2023-04-03T03:30:16;96290.47;;;6.80;64.85
37892;BME280;45797;47.466;9.486;2023-04-03T03:35:17;96289.09;;;6.73;64.74
37892;BME280;45797;47.466;9.486;2023-04-03T03:40:21;96286.63;;;6.70;65.03
37892;BME280;45797;47.466;9.486;2023-04-03T03:45:28;96285.22;;;6.63;64.74
37892;BME280;45797;47.466;9.486;2023-04-03T03:50:39;96297.84;;;6.53;65.08
37892;BME280;45797;47.466;9.486;2023-04-03T03:55:45;96295.91;;;6.40;64.81
37892;BME280;45797;47.466;9.486;2023-04-03T04:00:46;96291.22;;;6.29;64.82
37892;BME280;45797;47.466;9.486;2023-04-03T04:05:49;96298.75;;;6.16;65.33
37892;BME280;45797;47.466;9.486;2023-04-03T04:10:57;96299.88;;;6.11;64.88
37892;BME280;45797;47.466;9.486;2023-04-03T04:16:01;96305.28;;;6.06;64.75
37892;BME280;45797;47.466;9.486;2023-04-03T04:21:04;96301.91;;;6.04;64.82
37892;BME280;45797;47.466;9.486;2023-04-03T04:26:08;96307.09;;;6.04;65.21
37892;BME280;45797;47.466;9.486;2023-04-03T04:31:11;96308.19;;;6.00;64.86
37892;BME280;45797;47.466;9.486;2023-04-03T04:36:22;96299.47;;;6.01;64.44
37892;BME280;45797;47.466;9.486;2023-04-03T04:41:33;96307.19;;;6.03;64.63
37892;BME280;45797;47.466;9.486;2023-04-03T04:46:48;96305.44;;;6.03;64.58
37892;BME280;45797;47.466;9.486;2023-04-03T04:51:48;96309.44;;;6.10;64.50
37892;BME280;45797;47.466;9.486;2023-04-03T04:56:49;96302.66;;;6.06;64.46
37892;BME280;45797;47.466;9.486;2023-04-03T05:01:55;96306.19;;;6.05;64.38
37892;BME280;45797;47.466;9.486;2023-04-03T05:06:57;96301.63;;;6.10;64.54
37892;BME280;45797;47.466;9.486;2023-04-03T05:12:04;96301.56;;;6.12;64.69
37892;BME280;45797;47.466;9.486;2023-04-03T05:17:12;96296.22;;;6.15;64.04
37892;BME280;45797;47.466;9.486;2023-04-03T05:22:17;96306.56;;;6.16;64.69
37892;BME280;45797;47.466;9.486;2023-04-03T05:27:25;96307.19;;;6.21;63.85
37892;BME280;45797;47.466;9.486;2023-04-03T05:32:32;96307.88;;;6.25;63.65
37892;BME280;45797;47.466;9.486;2023-04-03T05:37:58;96322.50;;;6.27;63.91
37892;BME280;45797;47.466;9.486;2023-04-03T05:43:01;96310.97;;;6.33;63.70
37892;BME280;45797;47.466;9.486;2023-04-03T05:48:05;96311.78;;;6.34;64.24
37892;BME280;45797;47.466;9.486;2023-04-03T05:53:22;96319.41;;;6.19;63.68
37892;BME280;45797;47.466;9.486;2023-04-03T05:58:36;96316.81;;;6.19;63.92
37892;BME280;45797;47.466;9.486;2023-04-03T06:03:44;96325.22;;;6.24;64.08
37892;BME280;45797;47.466;9.486;2023-04-03T06:08:52;96318.06;;;6.29;63.88
37892;BME280;45797;47.466;9.486;2023-04-03T06:13:54;96328.25;;;6.34;63.83
37892;BME280;45797;47.466;9.486;2023-04-03T06:18:56;96321.09;;;6.39;63.66
37892;BME280;45797;47.466;9.486;2023-04-03T06:23:57;96318.25;;;6.44;63.72
37892;BME280;45797;47.466;9.486;2023-04-03T06:28:59;96320.66;;;6.48;63.62
37892;BME280;45797;47.466;9.486;2023-04-03T06:34:01;96321.50;;;6.49;63.20
37892;BME280;45797;47.466;9.486;2023-04-03T06:39:03;96324.75;;;6.54;63.77
37892;BME280;45797;47.466;9.486;2023-04-03T06:44:05;96321.41;;;6.50;63.72
37892;BME280;45797;47.466;9.486;2023-04-03T06:49:22;96322.78;;;6.21;64.21
37892;BME280;45797;47.466;9.486;2023-04-03T06:54:24;96314.84;;;6.06;64.52
37892;BME280;45797;47.466;9.486;2023-04-03T06:59:25;96330.91;;;5.95;65.26
37892;BME280;45797;47.466;9.486;2023-04-03T07:04:33;96334.81;;;5.85;64.87
37892;BME280;45797;47.466;9.486;2023-04-03T07:09:35;96329.53;;;5.86;65.49
37892;BME280;45797;47.466;9.486;2023-04-03T07:14:55;96339.91;;;5.88;65.04
37892;BME280;45797;47.466;9.486;2023-04-03T07:20:07;96343.16;;;5.93;64.85
37892;BME280;45797;47.466;9.486;2023-04-03T07:25:26;96346.50;;;5.95;64.56
37892;BME280;45797;47.466;9.486;2023-04-03T07:36:02;96346.91;;;5.86;65.16
37892;BME280;45797;47.466;9.486;2023-04-03T07:41:03;96356.72;;;5.99;64.73
37892;BME280;45797;47.466;9.486;2023-04-03T07:46:12;96348.38;;;6.12;64.22
37892;BME280;45797;47.466;9.486;2023-04-03T07:51:14;96348.88;;;6.20;64.20
37892;BME280;45797;47.466;9.486;2023-04-03T07:56:25;96354.25;;;6.15;64.35
37892;BME280;45797;47.466;9.486;2023-04-03T08:01:35;96346.00;;;6.26;64.09
37892;BME280;45797;47.466;9.486;2023-04-03T08:06:44;96357.34;;;6.23;64.35
37892;BME280;45797;47.466;9.486;2023-04-03T08:11:46;96350.53;;;6.40;64.28
37892;BME280;45797;47.466;9.486;2023-04-03T08:16:56;96350.53;;;6.58;63.78
37892;BME280;45797;47.466;9.486;2023-04-03T08:22:00;96351.69;;;6.70;63.12
37892;BME280;45797;47.466;9.486;2023-04-03T08:27:09;96358.84;;;6.84;62.93
37892;BME280;45797;47.466;9.486;2023-04-03T08:32:11;96348.53;;;7.00;63.21
37892;BME280;45797;47.466;9.486;2023-04-03T08:37:14;96352.06;;;7.16;63.22
37892;BME280;45797;47.466;9.486;2023-04-03T08:48:05;96366.53;;;7.04;63.13
37892;BME280;45797;47.466;9.486;2023-04-03T08:53:33;96357.25;;;6.99;63.66
37892;BME280;45797;47.466;9.486;2023-04-03T08:59:04;96363.03;;;7.05;63.69
37892;BME280;45797;47.466;9.486;2023-04-03T09:04:13;96362.41;;;7.18;63.21
37892;BME280;45797;47.466;9.486;2023-04-03T09:09:30;96357.75;;;7.24;63.35
37892;BME280;45797;47.466;9.486;2023-04-03T09:30:27;96353.78;;;7.67;62.67
37892;BME280;45797;47.466;9.486;2023-04-03T09:35:33;96354.19;;;7.77;62.67
37892;BME280;45797;47.466;9.486;2023-04-03T09:40:44;96357.69;;;7.76;62.67
37892;BME280;45797;47.466;9.486;2023-04-03T09:45:46;96360.47;;;7.73;63.04
37892;BME280;45797;47.466;9.486;2023-04-03T09:51:04;96356.81;;;7.77;62.48
37892;BME280;45797;47.466;9.486;2023-04-03T09:56:26;96347.22;;;7.78;62.72
37892;BME280;45797;47.466;9.486;2023-04-03T10:01:29;96354.78;;;7.82;62.83
37892;BME280;45797;47.466;9.486;2023-04-03T10:06:32;96348.47;;;7.86;63.14
37892;BME280;45797;47.466;9.486;2023-04-03T10:17:16;96345.56;;;7.92;62.53
37892;BME280;45797;47.466;9.486;2023-04-03T10:28:20;96350.47;;;7.98;62.18
37892;BME280;45797;47.466;9.486;2023-04-03T10:38:59;96327.69;;;8.18;62.14
37892;BME280;45797;47.466;9.486;2023-04-03T10:44:26;96336.56;;;8.14;61.92
37892;BME280;45797;47.466;9.486;2023-04-03T11:00:45;96317.78;;;8.72;60.90
37892;BME280;45797;47.466;9.486;2023-04-03T11:06:08;96329.13;;;8.86;60.52
37892;BME280;45797;47.466;9.486;2023-04-03T11:11:39;96313.56;;;8.99;60.21
37892;BME280;45797;47.466;9.486;2023-04-03T11:16:47;96309.69;;;9.06;60.56
37892;BME280;45797;47.466;9.486;2023-04-03T11:21:54;96304.88;;;9.14;60.44
37892;BME280;45797;47.466;9.486;2023-04-03T11:27:00;96311.97;;;9.27;60.24
37892;BME280;45797;47.466;9.486;2023-04-03T11:32:31;96299.13;;;9.38;60.32
37892;BME280;45797;47.466;9.486;2023-04-03T11:37:48;96304.53;;;9.35;60.12
37892;BME280;45797;47.466;9.486;2023-04-03T11:53:35;96297.47;;;9.94;58.60
37892;BME280;45797;47.466;9.486;2023-04-03T11:58:37;96292.91;;;10.26;58.06
37892;BME280;45797;47.466;9.486;2023-04-03T12:08:47;96279.06;;;10.65;57.41
37892;BME280;45797;47.466;9.486;2023-04-03T12:14:14;96284.34;;;10.78;57.17
37892;BME280;45797;47.466;9.486;2023-04-03T12:24:28;96263.81;;;11.11;56.57
37892;BME280;45797;47.466;9.486;2023-04-03T12:29:38;96256.78;;;11.25;56.38
37892;BME280;45797;47.466;9.486;2023-04-03T12:40:26;96257.84;;;11.22;56.34
37892;BME280;45797;47.466;9.486;2023-04-03T12:45:44;96254.38;;;11.22;56.17
37892;BME280;45797;47.466;9.486;2023-04-03T12:50:59;96258.56;;;11.11;56.51
37892;BME280;45797;47.466;9.486;2023-04-03T13:06:58;96245.16;;;10.76;56.83
37892;BME280;45797;47.466;9.486;2023-04-03T13:12:02;96252.41;;;10.58;57.26
37892;BME280;45797;47.466;9.486;2023-04-03T13:17:38;96245.84;;;10.39;57.29
37892;BME280;45797;47.466;9.486;2023-04-03T13:22:50;96252.06;;;10.23;58.03
37892;BME280;45797;47.466;9.486;2023-04-03T13:28:04;96244.00;;;10.12;57.74
37892;BME280;45797;47.466;9.486;2023-04-03T13:33:25;96234.94;;;10.03;57.52
37892;BME280;45797;47.466;9.486;2023-04-03T13:38:29;96238.53;;;9.88;57.60
37892;BME280;45797;47.466;9.486;2023-04-03T13:43:36;96235.47;;;9.82;58.06
37892;BME280;45797;47.466;9.486;2023-04-03T13:48:57;96240.72;;;9.67;58.04
37892;BME280;45797;47.466;9.486;2023-04-03T13:54:00;96242.75;;;9.62;57.86
37892;BME280;45797;47.466;9.486;2023-04-03T13:59:36;96238.44;;;9.47;57.98
37892;BME280;45797;47.466;9.486;2023-04-03T14:04:49;96240.50;;;9.42;58.11
37892;BME280;45797;47.466;9.486;2023-04-03T14:09:50;96237.06;;;9.41;58.04
37892;BME280;45797;47.466;9.486;2023-04-03T14:14:52;96243.88;;;9.44;58.01
37892;BME280;45797;47.466;9.486;2023-04-03T14:19:56;96233.88;;;9.51;57.70
37892;BME280;45797;47.466;9.486;2023-04-03T14:24:57;96229.84;;;9.45;57.85
37892;BME280;45797;47.466;9.486;2023-04-03T14:30:04;96234.34;;;9.43;57.31
37892;BME280;45797;47.466;9.486;2023-04-03T14:35:06;96221.63;;;9.37;57.40
37892;BME280;45797;47.466;9.486;2023-04-03T14:40:07;96224.44;;;9.34;57.23
37892;BME280;45797;47.466;9.486;2023-04-03T14:45:17;96219.56;;;9.28;57.50
37892;BME280;45797;47.466;9.486;2023-04-03T14:50:26;96216.75;;;9.16;57.49
37892;BME280;45797;47.466;9.486;2023-04-03T14:55:45;96217.41;;;9.06;57.26
37892;BME280;45797;47.466;9.486;2023-04-03T15:00:56;96222.72;;;9.04;57.56
37892;BME280;45797;47.466;9.486;2023-04-03T15:06:18;96217.00;;;8.98;57.51
37892;BME280;45797;47.466;9.486;2023-04-03T15:11:44;96219.47;;;9.01;57.49
37892;BME280;45797;47.466;9.486;2023-04-03T15:16:44;96215.25;;;8.98;57.64
37892;BME280;45797;47.466;9.486;2023-04-03T15:21:45;96218.03;;;8.95;57.45
37892;BME280;45797;47.466;9.486;2023-04-03T15:26:50;96223.25;;;8.95;57.17
37892;BME280;45797;47.466;9.486;2023-04-03T15:31:55;96237.44;;;8.91;57.18
37892;BME280;45797;47.466;9.486;2023-04-03T15:37:09;96234.91;;;8.90;57.48
37892;BME280;45797;47.466;9.486;2023-04-03T15:42:28;96238.97;;;8.79;57.24
37892;BME280;45797;47.466;9.486;2023-04-03T15:47:39;96235.63;;;8.77;57.20
37892;BME280;45797;47.466;9.486;2023-04-03T15:52:39;96235.13;;;8.71;57.37
37892;BME280;45797;47.466;9.486;2023-04-03T15:57:40;96237.00;;;8.69;57.34
37892;BME280;45797;47.466;9.486;2023-04-03T16:02:41;96233.44;;;8.70;57.54
37892;BME280;45797;47.466;9.486;2023-04-03T16:07:54;96239.88;;;8.64;57.43
37892;BME280;45797;47.466;9.486;2023-04-03T16:12:55;96241.06;;;8.58;57.77
37892;BME280;45797;47.466;9.486;2023-04-03T16:18:05;96228.09;;;8.57;57.42
37892;BME280;45797;47.466;9.486;2023-04-03T16:23:06;96232.06;;;8.48;57.48
37892;BME280;45797;47.466;9.486;2023-04-03T16:28:07;96230.56;;;8.44;57.56
37892;BME280;45797;47.466;9.486;2023-04-03T16:33:11;96237.63;;;8.42;57.40
37892;BME280;45797;47.466;9.486;2023-04-03T16:38:13;96253.66;;;8.36;57.82
37892;BME280;45797;47.466;9.486;2023-04-03T16:43:20;96248.53;;;8.33;57.48
37892;BME280;45797;47.466;9.486;2023-04-03T16:48:20;96249.38;;;8.34;57.84
37892;BME280;45797;47.466;9.486;2023-04-03T16:53:22;96248.50;;;8.35;57.61
37892;BME280;45797;47.466;9.486;2023-04-03T16:58:23;96250.25;;;8.34;58.07
37892;BME280;45797;47.466;9.486;2023-04-03T17:03:23;96258.09;;;8.34;57.85
37892;BME280;45797;47.466;9.486;2023-04-03T17:08:26;96260.19;;;8.27;57.96
37892;BME280;45797;47.466;9.486;2023-04-03T17:13:46;96258.31;;;8.14;57.79
37892;BME280;45797;47.466;9.486;2023-04-03T17:18:47;96252.16;;;8.15;57.86
37892;BME280;45797;47.466;9.486;2023-04-03T17:23:54;96262.59;;;8.15;57.61
37892;BME280;45797;47.466;9.486;2023-04-03T17:28:59;96263.63;;;8.12;57.96
37892;BME280;45797;47.466;9.486;2023-04-03T17:34:17;96271.84;;;8.05;58.21
37892;BME280;45797;47.466;9.486;2023-04-03T17:39:18;96276.94;;;8.08;57.86
37892;BME280;45797;47.466;9.486;2023-04-03T17:44:18;96273.13;;;7.97;58.06
37892;BME280;45797;47.466;9.486;2023-04-03T17:49:35;96275.88;;;7.94;57.76
37892;BME280;45797;47.466;9.486;2023-04-03T17:54:40;96276.69;;;7.96;57.81
37892;BME280;45797;47.466;9.486;2023-04-03T17:59:49;96283.97;;;7.90;57.53
37892;BME280;45797;47.466;9.486;2023-04-03T18:04:52;96280.25;;;7.94;58.01
37892;BME280;45797;47.466;9.486;2023-04-03T18:09:56;96282.97;;;7.92;57.97
37892;BME280;45797;47.466;9.486;2023-04-03T18:14:59;96280.63;;;7.88;57.73
37892;BME280;45797;47.466;9.486;2023-04-03T18:20:00;96288.50;;;7.86;57.68
37892;BME280;45797;47.466;9.486;2023-04-03T18:25:02;96285.66;;;7.91;57.86
37892;BME280;45797;47.466;9.486;2023-04-03T18:30:08;96284.66;;;7.93;57.43
37892;BME280;45797;47.466;9.486;2023-04-03T18:35:20;96285.66;;;7.91;57.51
37892;BME280;45797;47.466;9.486;2023-04-03T18:40:27;96278.06;;;7.86;57.60
37892;BME280;45797;47.466;9.486;2023-04-03T18:45:41;96279.00;;;7.85;57.79
37892;BME280;45797;47.466;9.486;2023-04-03T18:50:59;96288.31;;;7.73;58.05
37892;BME280;45797;47.466;9.486;2023-04-03T18:56:01;96294.22;;;7.77;57.92
37892;BME280;45797;47.466;9.486;2023-04-03T19:01:01;96296.13;;;7.73;57.67
37892;BME280;45797;47.466;9.486;2023-04-03T19:06:03;96296.22;;;7.72;57.48
37892;BME280;45797;47.466;9.486;2023-04-03T19:11:04;96296.22;;;7.72;57.70
37892;BME280;45797;47.466;9.486;2023-04-03T19:16:11;96291.19;;;7.69;57.93
37892;BME280;45797;47.466;9.486;2023-04-03T19:21:19;96292.16;;;7.66;58.08
37892;BME280;45797;47.466;9.486;2023-04-03T19:26:21;96293.84;;;7.67;58.31
37892;BME280;45797;47.466;9.486;2023-04-03T19:31:29;96289.34;;;7.54;57.82
37892;BME280;45797;47.466;9.486;2023-04-03T19:36:35;96291.69;;;7.42;57.90
37892;BME280;45797;47.466;9.486;2023-04-03T19:41:50;96281.66;;;7.35;58.26
37892;BME280;45797;47.466;9.486;2023-04-03T19:46:51;96278.28;;;7.33;57.92
37892;BME280;45797;47.466;9.486;2023-04-03T19:52:18;96272.72;;;7.23;57.80
37892;BME280;45797;47.466;9.486;2023-04-03T19:57:21;96274.56;;;7.21;57.50
37892;BME280;45797;47.466;9.486;2023-04-03T20:02:28;96275.16;;;7.09;58.01
37892;BME280;45797;47.466;9.486;2023-04-03T20:07:30;96279.13;;;6.99;58.29
37892;BME280;45797;47.466;9.486;2023-04-03T20:12:31;96274.38;;;6.90;58.12
37892;BME280;45797;47.466;9.486;2023-04-03T20:17:33;96267.66;;;6.85;58.41
37892;BME280;45797;47.466;9.486;2023-04-03T20:22:45;96277.91;;;6.71;57.94
37892;BME280;45797;47.466;9.486;2023-04-03T20:27:58;96272.28;;;6.62;58.45
37892;BME280;45797;47.466;9.486;2023-04-03T20:33:02;96278.44;;;6.61;58.46
37892;BME280;45797;47.466;9.486;2023-04-03T20:38:14;96283.38;;;6.48;58.43
37892;BME280;45797;47.466;9.486;2023-04-03T20:43:15;96270.91;;;6.37;58.70
37892;BME280;45797;47.466;9.486;2023-04-03T20:48:18;96272.09;;;6.30;58.88
37892;BME280;45797;47.466;9.486;2023-04-03T20:53:18;96258.00;;;6.17;59.09
37892;BME280;45797;47.466;9.486;2023-04-03T20:58:19;96254.06;;;6.08;59.20
37892;BME280;45797;47.466;9.486;2023-04-03T21:03:19;96247.63;;;5.98;59.38
37892;BME280;45797;47.466;9.486;2023-04-03T21:19:48;96250.94;;;5.62;59.69
37892;BME280;45797;47.466;9.486;2023-04-03T21:24:56;96242.50;;;5.57;59.48
37892;BME280;45797;47.466;9.486;2023-04-03T21:29:56;96246.03;;;5.56;59.39
37892;BME280;45797;47.466;9.486;2023-04-03T21:34:58;96239.38;;;5.51;59.73
37892;BME280;45797;47.466;9.486;2023-04-03T21:39:58;96243.97;;;5.44;59.69
37892;BME280;45797;47.466;9.486;2023-04-03T21:45:02;96228.47;;;5.42;59.31
37892;BME280;45797;47.466;9.486;2023-04-03T21:50:05;96239.81;;;5.40;59.40
37892;BME280;45797;47.466;9.486;2023-04-03T21:55:08;96234.25;;;5.29;59.69
37892;BME280;45797;47.466;9.486;2023-04-03T22:00:08;96231.88;;;5.24;59.12
37892;BME280;45797;47.466;9.486;2023-04-03T22:05:18;96223.38;;;5.21;59.32
37892;BME280;45797;47.466;9.486;2023-04-03T22:10:23;96219.31;;;5.15;59.18
37892;BME280;45797;47.466;9.486;2023-04-03T22:15:24;96217.63;;;5.14;59.06
37892;BME280;45797;47.466;9.486;2023-04-03T22:20:25;96225.72;;;5.06;59.26
37892;BME280;45797;47.466;9.486;2023-04-03T22:25:26;96222.38;;;5.04;59.52
37892;BME280;45797;47.466;9.486;2023-04-03T22:30:33;96224.44;;;4.96;59.46
37892;BME280;45797;47.466;9.486;2023-04-03T22:35:54;96223.16;;;4.86;59.43
37892;BME280;45797;47.466;9.486;2023-04-03T22:41:02;96213.78;;;4.82;59.79
37892;BME280;45797;47.466;9.486;2023-04-03T22:46:05;96223.47;;;4.78;59.46
37892;BME280;45797;47.466;9.486;2023-04-03T22:51:07;96222.94;;;4.70;59.23
37892;BME280;45797;47.466;9.486;2023-04-03T22:56:12;96221.34;;;4.68;59.69
37892;BME280;45797;47.466;9.486;2023-04-03T23:01:13;96229.25;;;4.65;59.59
37892;BME280;45797;47.466;9.486;2023-04-03T23:06:20;96228.59;;;4.59;59.20
37892;BME280;45797;47.466;9.486;2023-04-03T23:11:24;96223.47;;;4.58;59.42
37892;BME280;45797;47.466;9.486;2023-04-03T23:16:26;96221.19;;;4.50;59.25
37892;BME280;45797;47.466;9.486;2023-04-03T23:21:27;96223.00;;;4.48;59.81
37892;BME280;45797;47.466;9.486;2023-04-03T23:26:35;96216.38;;;4.41;59.36
37892;BME280;45797;47.466;9.486;2023-04-03T23:31:40;96218.97;;;4.41;59.50
37892;BME280;45797;47.466;9.486;2023-04-03T23:36:47;96218.34;;;4.36;59.51
37892;BME280;45797;47.466;9.486;2023-04-03T23:41:48;96212.34;;;4.34;59.64
37892;BME280;45797;47.466;9.486;2023-04-03T23:46:49;96211.69;;;4.29;59.94
37892;BME280;45797;47.466;9.486;2023-04-03T23:51:49;96211.78;;;4.27;59.96
37892;BME280;45797;47.466;9.486;2023-04-03T23:56:50;96211.03;;;4.24;59.85
